Time;durP1;ratioP1;P1;durP2;ratioP2;P2;SDS_P1;SDS_P2;PMS_P1;PMS_P2;Temp;Humidity;BMP_temperature;BMP_pressure;BME280_temperature;BME280_humidity;BME280_pressure;Samples;Min_cycle;Max_cycle;Signal;HPM_P1;HPM_P2
2021/12/29 00:00:21;;;;;;;38.38;12.63;;;6.30;99.90;;;;;;5056378;28;20122;-71
2021/12/29 00:02:47;;;;;;;34.50;11.55;;;6.40;99.90;;;;;;5059685;28;20049;-71
2021/12/29 00:05:13;;;;;;;39.28;12.60;;;6.30;99.90;;;;;;5056631;28;20045;-71
2021/12/29 00:07:39;;;;;;;31.02;11.40;;;6.40;99.90;;;;;;5058238;28;20048;-71
2021/12/29 00:10:06;;;;;;;33.75;10.73;;;6.40;99.90;;;;;;5056949;28;20052;-70
2021/12/29 00:12:39;;;;;;;21.50;9.45;;;6.40;99.90;;;;;;5057192;28;20048;-70
2021/12/29 00:15:05;;;;;;;24.17;8.85;;;6.40;99.90;;;;;;5058137;28;20055;-70
2021/12/29 00:17:31;;;;;;;17.13;6.85;;;6.40;99.90;;;;;;5079474;28;20053;-70
2021/12/29 00:19:56;;;;;;;16.40;7.22;;;6.40;99.90;;;;;;5058523;28;20041;-70
2021/12/29 00:22:22;;;;;;;14.43;6.75;;;6.40;99.90;;;;;;5078436;28;20045;-70
2021/12/29 00:24:48;;;;;;;18.23;6.68;;;6.40;99.90;;;;;;5033111;28;20045;-71
2021/12/29 00:27:13;;;;;;;14.50;5.78;;;6.50;99.90;;;;;;5057128;28;20100;-70
2021/12/29 00:29:40;;;;;;;14.98;6.22;;;6.40;99.90;;;;;;5056166;28;20048;-70
2021/12/29 00:32:06;;;;;;;13.57;5.93;;;6.30;99.90;;;;;;5053722;28;20091;-69
2021/12/29 00:34:31;;;;;;;14.77;5.85;;;6.30;99.90;;;;;;5056177;28;20087;-70
2021/12/29 00:36:57;;;;;;;13.73;5.72;;;6.30;99.90;;;;;;5058072;28;20037;-71
2021/12/29 00:39:23;;;;;;;16.17;5.75;;;6.30;99.90;;;;;;5089947;28;20086;-71
2021/12/29 00:41:49;;;;;;;14.82;5.68;;;6.30;99.90;;;;;;5041705;28;20045;-70
2021/12/29 00:44:15;;;;;;;14.05;5.45;;;6.30;99.90;;;;;;5057684;28;20542;-70
2021/12/29 00:46:41;;;;;;;12.35;4.95;;;6.30;99.90;;;;;;5057447;28;20045;-70
2021/12/29 00:49:08;;;;;;;9.90;3.90;;;6.20;99.90;;;;;;5057852;28;20578;-70
2021/12/29 00:51:34;;;;;;;11.02;4.40;;;6.20;99.90;;;;;;5056977;28;20247;-71
2021/12/29 00:54:00;;;;;;;10.57;4.35;;;6.20;99.90;;;;;;5058155;28;20071;-71
2021/12/29 00:56:26;;;;;;;8.60;3.75;;;6.20;99.90;;;;;;5055690;28;20037;-71
2021/12/29 00:58:52;;;;;;;9.95;3.85;;;6.20;99.90;;;;;;5057953;28;20079;-71
2021/12/29 01:01:18;;;;;;;11.63;4.18;;;6.20;99.90;;;;;;5077352;28;20080;-71
2021/12/29 01:03:44;;;;;;;13.32;4.65;;;6.20;99.90;;;;;;5053690;28;20033;-71
2021/12/29 01:06:10;;;;;;;9.40;4.18;;;6.10;99.90;;;;;;5057872;28;20045;-71
2021/12/29 01:08:36;;;;;;;9.88;3.63;;;6.20;99.90;;;;;;5055962;28;20048;-71
2021/12/29 01:11:04;;;;;;;10.35;3.83;;;6.10;99.90;;;;;;5055883;28;20499;-71
2021/12/29 01:13:31;;;;;;;10.95;4.28;;;6.10;99.90;;;;;;5072128;28;20068;-71
2021/12/29 01:18:31;;;;;;;11.80;5.38;;;6.10;99.90;;;;;;5089759;28;20069;-70
2021/12/29 01:20:57;;;;;;;11.38;4.22;;;6.10;99.90;;;;;;5058539;28;20049;-70
2021/12/29 01:23:23;;;;;;;14.15;4.78;;;6.10;99.90;;;;;;5058675;28;20068;-70
2021/12/29 01:25:49;;;;;;;10.88;4.60;;;6.10;99.90;;;;;;5056195;28;20087;-70
2021/12/29 01:28:15;;;;;;;11.65;4.63;;;6.20;99.90;;;;;;5051403;28;20429;-71
2021/12/29 01:30:41;;;;;;;13.10;4.85;;;6.10;99.90;;;;;;5036311;28;20050;-70
2021/12/29 01:33:07;;;;;;;10.10;4.80;;;6.10;99.90;;;;;;5038911;28;20056;-70
2021/12/29 01:35:34;;;;;;;10.25;5.47;;;6.10;99.90;;;;;;5035413;28;20394;-70
2021/12/29 01:38:05;;;;;;;14.05;5.40;;;6.10;99.90;;;;;;5070431;28;20049;-70
2021/12/29 01:40:31;;;;;;;12.38;4.47;;;6.10;99.90;;;;;;5038438;28;20060;-70
2021/12/29 01:42:58;;;;;;;12.15;4.90;;;6.10;99.90;;;;;;5035717;28;20072;-69
2021/12/29 01:45:24;;;;;;;16.90;5.15;;;6.10;99.90;;;;;;5038304;28;20069;-70
2021/12/29 01:47:50;;;;;;;17.42;5.80;;;6.10;99.90;;;;;;5068109;28;20191;-69
2021/12/29 01:50:17;;;;;;;15.40;5.63;;;6.20;99.90;;;;;;5037622;28;20077;-70
2021/12/29 01:52:50;;;;;;;17.23;6.25;;;6.20;99.90;;;;;;5068876;28;20064;-69
2021/12/29 01:55:17;;;;;;;19.15;5.97;;;6.20;99.90;;;;;;5036807;28;20045;-70
2021/12/29 01:57:44;;;;;;;20.63;6.30;;;6.20;99.90;;;;;;5036365;28;20046;-70
2021/12/29 02:00:17;;;;;;;19.95;6.28;;;6.30;99.90;;;;;;5068779;28;20053;-70
2021/12/29 02:02:43;;;;;;;23.85;6.78;;;6.30;99.90;;;;;;5036703;28;20444;-70
2021/12/29 02:05:09;;;;;;;26.08;7.20;;;6.30;99.90;;;;;;5035299;28;20052;-70
2021/12/29 02:07:35;;;;;;;24.77;8.48;;;6.30;99.90;;;;;;5070634;28;20298;-70
2021/12/29 02:10:01;;;;;;;31.10;7.78;;;6.30;99.90;;;;;;5035418;28;20053;-70
2021/12/29 02:12:27;;;;;;;31.48;7.65;;;6.30;99.90;;;;;;5036072;28;20076;-71
2021/12/29 02:14:52;;;;;;;38.85;7.75;;;6.30;99.90;;;;;;5036867;28;20077;-71
2021/12/29 02:17:18;;;;;;;36.63;8.75;;;6.40;99.90;;;;;;5035113;28;20494;-71
2021/12/29 02:19:46;;;;;;;32.28;8.65;;;6.40;99.90;;;;;;5036890;28;20050;-71
2021/12/29 02:24:54;;;;;;;42.25;10.00;;;6.40;99.90;;;;;;5041002;28;20065;-71
2021/12/29 02:27:20;;;;;;;43.47;11.15;;;6.50;99.90;;;;;;5041321;28;20408;-70
2021/12/29 02:29:47;;;;;;;50.65;10.00;;;6.50;99.90;;;;;;5039847;28;20045;-71
2021/12/29 02:32:14;;;;;;;68.47;11.27;;;6.50;99.90;;;;;;5073174;28;20057;-71
2021/12/29 02:34:40;;;;;;;59.45;12.05;;;6.50;99.90;;;;;;5038623;28;20135;-70
2021/12/29 02:37:07;;;;;;;55.78;12.55;;;6.50;99.90;;;;;;5057603;28;20060;-70
2021/12/29 02:39:36;;;;;;;69.60;11.90;;;6.60;99.90;;;;;;5039983;28;20038;-71
2021/12/29 02:42:05;;;;;;;78.85;13.65;;;6.60;99.90;;;;;;5042375;28;20105;-71
2021/12/29 02:44:38;;;;;;;60.28;11.30;;;6.50;99.90;;;;;;5041106;28;20108;-71
2021/12/29 02:47:05;;;;;;;88.70;12.82;;;6.60;99.90;;;;;;5040757;28;20100;-71
2021/12/29 02:49:30;;;;;;;53.67;10.77;;;6.60;99.90;;;;;;5040530;28;20068;-70
2021/12/29 02:51:56;;;;;;;48.08;9.95;;;6.60;99.90;;;;;;5040105;28;20046;-71
2021/12/29 02:54:22;;;;;;;37.42;9.35;;;6.50;99.90;;;;;;5040430;28;20168;-70
2021/12/29 02:56:52;;;;;;;38.83;8.38;;;6.60;99.90;;;;;;5040077;28;20049;-71
2021/12/29 02:59:18;;;;;;;39.25;7.93;;;6.50;99.90;;;;;;5039878;28;20080;-71
2021/12/29 03:01:43;;;;;;;40.90;8.52;;;6.60;99.90;;;;;;5040309;28;20049;-70
2021/12/29 03:04:11;;;;;;;34.97;8.88;;;6.60;99.90;;;;;;5038589;28;20575;-71
2021/12/29 03:06:37;;;;;;;32.58;8.35;;;6.70;99.90;;;;;;5039957;28;20045;-70
2021/12/29 03:09:05;;;;;;;33.22;7.68;;;6.60;99.90;;;;;;5038101;28;20064;-71
2021/12/29 03:11:31;;;;;;;31.58;7.43;;;6.60;99.90;;;;;;5040349;28;20054;-71
2021/12/29 03:13:57;;;;;;;35.15;8.77;;;6.70;99.90;;;;;;5071366;28;20057;-71
2021/12/29 03:16:24;;;;;;;41.42;8.70;;;6.60;99.90;;;;;;5040034;28;20045;-71
2021/12/29 03:18:50;;;;;;;26.52;7.68;;;6.60;99.90;;;;;;5040511;28;20069;-70
2021/12/29 03:21:16;;;;;;;30.50;7.10;;;6.60;99.90;;;;;;5038849;28;20082;-71
2021/12/29 03:23:42;;;;;;;35.38;9.50;;;6.60;99.90;;;;;;5023232;28;20045;-71
2021/12/29 03:26:08;;;;;;;33.30;9.27;;;6.60;99.90;;;;;;5071381;28;20448;-70
2021/12/29 03:28:35;;;;;;;28.55;7.68;;;6.60;99.90;;;;;;5056621;28;20112;-70
2021/12/29 03:31:01;;;;;;;33.63;8.90;;;6.70;99.90;;;;;;5037199;28;20158;-70
2021/12/29 03:33:29;;;;;;;26.17;7.35;;;6.70;99.90;;;;;;5039958;28;20060;-71
2021/12/29 03:36:02;;;;;;;31.83;8.35;;;6.70;99.90;;;;;;5072044;28;20061;-70
2021/12/29 03:38:29;;;;;;;27.13;8.52;;;6.70;99.90;;;;;;5037748;28;20056;-70
2021/12/29 03:40:57;;;;;;;24.77;6.43;;;6.80;99.90;;;;;;5056046;28;20076;-69
2021/12/29 03:43:25;;;;;;;26.70;9.52;;;6.70;99.90;;;;;;5037842;28;20394;-70
2021/12/29 03:45:51;;;;;;;28.98;8.05;;;6.70;99.90;;;;;;5039795;28;20064;-70
2021/12/29 03:48:19;;;;;;;26.23;7.70;;;6.70;99.90;;;;;;5054347;28;20050;-70
2021/12/29 03:50:46;;;;;;;29.13;8.85;;;6.80;99.90;;;;;;5072365;28;20045;-70
2021/12/29 03:53:14;;;;;;;23.88;7.22;;;6.80;99.90;;;;;;5038812;28;20088;-70
2021/12/29 03:55:41;;;;;;;23.17;7.65;;;6.80;99.90;;;;;;5037993;28;20120;-70
2021/12/29 03:58:08;;;;;;;27.10;9.05;;;6.80;99.90;;;;;;5072410;28;20060;-70
2021/12/29 04:00:37;;;;;;;25.92;8.90;;;6.90;99.90;;;;;;5038377;28;20124;-70
2021/12/29 04:03:05;;;;;;;30.20;9.88;;;6.90;99.90;;;;;;5072221;28;20038;-70
2021/12/29 04:05:31;;;;;;;29.42;9.70;;;6.00;99.90;;;;;;5039107;28;20056;-70
2021/12/29 04:07:57;;;;;;;29.08;9.43;;;6.90;99.90;;;;;;5071774;28;20054;-69
2021/12/29 04:10:24;;;;;;;28.42;8.73;;;6.90;99.90;;;;;;5038369;28;20072;-70
2021/12/29 04:12:50;;;;;;;26.73;9.13;;;6.90;99.90;;;;;;5020785;28;20057;-70
2021/12/29 04:15:16;;;;;;;26.30;9.23;;;6.90;99.90;;;;;;5039079;28;20588;-70
2021/12/29 04:17:44;;;;;;;27.02;9.70;;;6.90;99.90;;;;;;5036130;28;20049;-69
2021/12/29 04:22:58;;;;;;;26.80;9.90;;;7.00;99.90;;;;;;5037988;28;20049;-70
2021/12/29 04:25:25;;;;;;;26.85;10.43;;;7.00;99.90;;;;;;5071081;28;20049;-69
2021/12/29 04:27:56;;;;;;;25.88;10.13;;;7.00;99.90;;;;;;5038996;28;20045;-70
2021/12/29 04:30:24;;;;;;;29.20;9.45;;;7.00;99.90;;;;;;5037377;28;20033;-70
2021/12/29 04:32:52;;;;;;;30.58;11.10;;;7.10;99.90;;;;;;5037221;28;20050;-71
2021/12/29 04:35:19;;;;;;;32.33;12.00;;;7.10;99.90;;;;;;5037132;28;20155;-69
2021/12/29 04:37:45;;;;;;;34.67;11.55;;;7.10;99.90;;;;;;5071680;28;20053;-71
2021/12/29 04:40:11;;;;;;;32.60;10.40;;;7.10;99.90;;;;;;5071061;28;20056;-69
2021/12/29 04:42:37;;;;;;;36.08;12.15;;;7.00;99.90;;;;;;5070433;28;20045;-70
2021/12/29 04:45:04;;;;;;;35.40;11.20;;;7.10;99.90;;;;;;5071360;28;20046;-70
2021/12/29 04:47:31;;;;;;;31.77;10.65;;;7.10;99.90;;;;;;5036356;28;20054;-70
2021/12/29 04:50:02;;;;;;;33.55;10.60;;;7.10;99.90;;;;;;5040071;28;20053;-71
2021/12/29 04:52:29;;;;;;;34.47;11.38;;;7.10;99.90;;;;;;5036078;28;20076;-69
2021/12/29 04:54:55;;;;;;;32.95;11.23;;;7.10;99.90;;;;;;5039231;28;20045;-70
2021/12/29 04:57:22;;;;;;;28.98;10.88;;;7.10;99.90;;;;;;5038570;28;20041;-70
2021/12/29 04:59:48;;;;;;;32.17;11.32;;;7.20;99.90;;;;;;5069816;28;20037;-71
2021/12/29 05:02:14;;;;;;;33.95;10.85;;;7.20;99.90;;;;;;5070981;28;20107;-69
2021/12/29 05:04:46;;;;;;;32.00;11.35;;;7.20;99.90;;;;;;5037281;28;20508;-71
2021/12/29 05:09:59;;;;;;;27.98;10.20;;;7.20;99.90;;;;;;5037990;28;20128;-69
2021/12/29 05:12:25;;;;;;;23.65;10.18;;;7.20;99.90;;;;;;5037207;28;20096;-70
2021/12/29 05:14:50;;;;;;;28.10;10.38;;;7.10;99.90;;;;;;5021257;28;20073;-71
2021/12/29 05:17:16;;;;;;;29.45;10.00;;;7.20;99.90;;;;;;5035936;28;20048;-70
2021/12/29 05:19:42;;;;;;;25.92;9.85;;;7.20;99.90;;;;;;5039322;28;20069;-71
2021/12/29 05:22:08;;;;;;;25.80;9.32;;;7.10;99.90;;;;;;5035698;28;20037;-70
2021/12/29 05:24:33;;;;;;;29.45;11.00;;;7.20;99.90;;;;;;5038134;28;20055;-70
2021/12/29 05:26:59;;;;;;;25.25;8.57;;;7.20;99.90;;;;;;5037531;28;20045;-70
2021/12/29 05:29:25;;;;;;;25.08;9.98;;;7.20;99.90;;;;;;5036981;28;20133;-71
2021/12/29 05:31:51;;;;;;;27.15;10.15;;;7.20;99.90;;;;;;5036624;28;20137;-71
2021/12/29 05:34:17;;;;;;;25.40;10.27;;;7.20;99.90;;;;;;5035208;28;20145;-71
2021/12/29 05:36:43;;;;;;;27.38;9.32;;;7.20;99.90;;;;;;5037536;28;20057;-69
2021/12/29 05:39:08;;;;;;;29.15;9.82;;;7.20;99.90;;;;;;5034916;28;20038;-71
2021/12/29 05:41:34;;;;;;;24.88;9.05;;;7.20;99.90;;;;;;5054315;28;20041;-71
2021/12/29 05:44:00;;;;;;;28.15;10.65;;;7.20;99.90;;;;;;5019059;28;20111;-69
2021/12/29 05:46:26;;;;;;;28.00;10.60;;;7.20;99.90;;;;;;5053765;28;20057;-70
2021/12/29 05:48:51;;;;;;;26.13;9.35;;;7.30;99.90;;;;;;5036586;28;20045;-70
2021/12/29 05:51:17;;;;;;;26.05;9.38;;;7.20;99.90;;;;;;5035875;28;20084;-70
2021/12/29 05:53:44;;;;;;;28.25;10.52;;;7.30;99.90;;;;;;5038341;28;20087;-70
2021/12/29 05:56:10;;;;;;;26.38;9.75;;;7.20;99.90;;;;;;5035185;28;20157;-71
2021/12/29 05:58:37;;;;;;;27.42;10.25;;;7.20;99.90;;;;;;5037473;28;20508;-69
2021/12/29 06:01:04;;;;;;;32.78;11.02;;;7.20;99.90;;;;;;5035118;28;20045;-69
2021/12/29 06:03:29;;;;;;;27.48;10.82;;;7.20;99.90;;;;;;5036798;28;20057;-70
2021/12/29 06:05:55;;;;;;;24.75;9.65;;;7.20;99.90;;;;;;5036297;28;20042;-69
2021/12/29 06:08:21;;;;;;;28.25;11.77;;;7.20;99.90;;;;;;5068890;28;20084;-71
2021/12/29 06:10:47;;;;;;;24.58;11.07;;;7.20;99.90;;;;;;5036476;28;20041;-71
2021/12/29 06:13:13;;;;;;;29.55;11.68;;;7.20;99.90;;;;;;5067844;28;20088;-71
2021/12/29 06:15:39;;;;;;;26.63;10.95;;;7.20;99.90;;;;;;5021012;28;20431;-71
2021/12/29 06:18:05;;;;;;;27.35;11.85;;;7.20;99.90;;;;;;5034808;28;20049;-70
2021/12/29 06:20:31;;;;;;;28.70;10.02;;;7.20;99.90;;;;;;5038618;28;20073;-70
2021/12/29 06:22:57;;;;;;;30.48;12.32;;;7.10;99.90;;;;;;5037224;28;20041;-70
2021/12/29 06:25:23;;;;;;;27.17;10.93;;;7.20;99.90;;;;;;5035642;28;20105;-71
2021/12/29 06:27:50;;;;;;;27.23;11.27;;;7.20;99.90;;;;;;5069863;28;20077;-71
2021/12/29 06:30:17;;;;;;;32.65;11.43;;;7.20;99.90;;;;;;5036292;28;20061;-71
2021/12/29 06:32:44;;;;;;;32.08;12.45;;;7.10;99.90;;;;;;5069805;28;20057;-70
2021/12/29 06:35:12;;;;;;;24.75;10.38;;;7.10;99.90;;;;;;5067950;28;20087;-70
2021/12/29 06:37:38;;;;;;;30.17;12.77;;;7.20;99.90;;;;;;5070116;28;20061;-72
2021/12/29 06:40:06;;;;;;;32.58;11.30;;;7.20;99.90;;;;;;5068975;28;20049;-71
2021/12/29 06:42:32;;;;;;;28.00;11.10;;;7.10;99.90;;;;;;5068980;28;20460;-70
2021/12/29 06:44:57;;;;;;;28.67;12.18;;;7.20;99.90;;;;;;5020276;28;20046;-71
2021/12/29 06:47:24;;;;;;;27.33;11.27;;;7.20;99.90;;;;;;5051694;28;20053;-70
2021/12/29 06:49:50;;;;;;;26.90;10.95;;;7.10;99.90;;;;;;5069946;28;20084;-71
2021/12/29 06:52:17;;;;;;;28.42;11.20;;;7.10;99.90;;;;;;5034766;28;20037;-72
2021/12/29 06:54:44;;;;;;;30.70;11.02;;;7.10;99.90;;;;;;5070579;28;20516;-70
2021/12/29 06:57:10;;;;;;;28.45;11.00;;;7.20;99.90;;;;;;5036854;28;20056;-71
2021/12/29 06:59:36;;;;;;;31.80;11.65;;;7.20;99.90;;;;;;5035721;28;20080;-72
2021/12/29 07:02:02;;;;;;;26.52;10.07;;;7.20;99.90;;;;;;5069339;28;20041;-70
2021/12/29 07:04:27;;;;;;;27.90;10.70;;;7.10;99.90;;;;;;5068334;28;20498;-72
2021/12/29 07:06:53;;;;;;;30.55;10.48;;;7.20;99.90;;;;;;5020324;28;20049;-72
2021/12/29 07:09:20;;;;;;;28.60;9.32;;;7.20;99.90;;;;;;5053547;28;20048;-72
2021/12/29 07:11:46;;;;;;;25.65;10.32;;;7.10;99.90;;;;;;5073660;28;20037;-72
2021/12/29 07:14:12;;;;;;;24.35;8.40;;;7.20;99.90;;;;;;5072621;28;20100;-71
2021/12/29 07:16:39;;;;;;;30.23;11.85;;;7.20;99.90;;;;;;5039131;28;20056;-72
2021/12/29 07:19:06;;;;;;;24.17;9.90;;;7.20;99.90;;;;;;5023378;28;20045;-71
2021/12/29 07:21:32;;;;;;;29.40;9.77;;;7.20;99.90;;;;;;5038032;28;20598;-71
2021/12/29 07:23:58;;;;;;;21.58;7.80;;;7.20;99.90;;;;;;5039768;28;20048;-72
2021/12/29 07:26:24;;;;;;;21.85;8.68;;;7.20;99.90;;;;;;5036791;28;20237;-71
2021/12/29 07:28:52;;;;;;;22.00;8.32;;;7.20;99.90;;;;;;5039666;28;20664;-71
2021/12/29 07:31:19;;;;;;;26.02;8.45;;;7.20;99.90;;;;;;5071180;28;20072;-71
2021/12/29 07:33:45;;;;;;;23.75;8.95;;;7.20;99.90;;;;;;5072324;28;20054;-72
2021/12/29 07:36:11;;;;;;;27.83;10.43;;;7.20;99.90;;;;;;5073200;28;20049;-72
2021/12/29 07:38:38;;;;;;;26.23;8.95;;;7.20;99.90;;;;;;5005645;28;20048;-72
2021/12/29 07:41:04;;;;;;;26.35;9.52;;;7.20;99.90;;;;;;5039994;28;20552;-72
2021/12/29 07:43:30;;;;;;;23.23;9.30;;;7.20;99.90;;;;;;5037377;28;20077;-72
2021/12/29 07:45:56;;;;;;;26.02;9.15;;;7.20;99.90;;;;;;5073176;28;20077;-72
2021/12/29 07:48:27;;;;;;;23.27;9.05;;;7.20;99.90;;;;;;5038050;28;20045;-72
2021/12/29 07:50:53;;;;;;;24.92;9.48;;;7.20;99.90;;;;;;5038606;28;20083;-72
2021/12/29 07:53:20;;;;;;;26.27;10.48;;;7.20;99.90;;;;;;5022590;28;20493;-72
2021/12/29 07:55:45;;;;;;;21.33;9.40;;;7.20;99.90;;;;;;5020682;28;20079;-72
2021/12/29 07:58:11;;;;;;;22.92;9.50;;;7.30;99.90;;;;;;5039467;28;20464;-72
2021/12/29 08:00:37;;;;;;;20.77;9.30;;;7.20;99.90;;;;;;5037306;28;20068;-72
2021/12/29 08:03:03;;;;;;;29.30;9.23;;;7.20;99.90;;;;;;5038867;28;20042;-72
2021/12/29 08:05:29;;;;;;;24.05;8.77;;;7.10;99.90;;;;;;5037035;28;20034;-71
2021/12/29 08:07:55;;;;;;;28.58;10.25;;;7.20;99.90;;;;;;5039008;28;20080;-72
2021/12/29 08:10:21;;;;;;;37.25;10.90;;;7.20;99.90;;;;;;5056034;28;20056;-72
2021/12/29 08:12:47;;;;;;;35.53;10.40;;;7.20;99.90;;;;;;5071695;28;20076;-72
2021/12/29 08:15:13;;;;;;;37.85;11.52;;;7.20;99.90;;;;;;5073504;28;20045;-72
2021/12/29 08:17:40;;;;;;;34.80;11.55;;;7.20;99.90;;;;;;5039859;28;20045;-72
2021/12/29 08:20:08;;;;;;;36.53;11.82;;;7.20;99.90;;;;;;5022575;28;20056;-72
2021/12/29 08:22:34;;;;;;;33.28;11.05;;;7.20;99.90;;;;;;5037395;28;20053;-72
2021/12/29 08:25:00;;;;;;;29.73;11.13;;;7.30;99.90;;;;;;5066117;28;20604;-72
2021/12/29 08:27:26;;;;;;;32.42;10.55;;;7.30;99.90;;;;;;5068805;28;20072;-72
2021/12/29 08:29:52;;;;;;;34.97;11.57;;;7.30;99.90;;;;;;5036238;28;20064;-72
2021/12/29 08:32:18;;;;;;;34.30;10.77;;;7.30;99.90;;;;;;5070823;28;20055;-72
2021/12/29 08:34:44;;;;;;;36.03;11.48;;;7.30;99.90;;;;;;5069708;28;20049;-72
2021/12/29 08:37:10;;;;;;;36.97;12.88;;;7.30;99.90;;;;;;5038102;28;20041;-72
2021/12/29 08:39:35;;;;;;;43.40;12.65;;;7.30;99.90;;;;;;5036565;28;20160;-72
2021/12/29 08:42:02;;;;;;;37.80;11.30;;;7.30;99.90;;;;;;5037156;28;20060;-72
2021/12/29 08:44:27;;;;;;;44.08;12.63;;;7.30;99.90;;;;;;5020496;28;20053;-72
2021/12/29 08:46:53;;;;;;;40.55;12.70;;;7.30;99.90;;;;;;5069165;28;20053;-72
2021/12/29 08:49:19;;;;;;;40.15;12.27;;;7.30;99.90;;;;;;5038162;28;20052;-72
2021/12/29 08:51:45;;;;;;;49.75;13.75;;;7.30;99.90;;;;;;5019355;28;20469;-72
2021/12/29 08:54:12;;;;;;;40.33;12.90;;;7.30;99.90;;;;;;5039209;28;20049;-72
2021/12/29 08:56:38;;;;;;;39.15;13.20;;;7.30;99.90;;;;;;5035236;28;20492;-72
2021/12/29 08:59:04;;;;;;;45.45;12.45;;;7.30;99.90;;;;;;5038146;28;20050;-72
2021/12/29 09:01:29;;;;;;;43.28;12.98;;;7.30;99.90;;;;;;5052633;28;20033;-72
2021/12/29 09:03:55;;;;;;;49.42;14.13;;;7.40;99.90;;;;;;5069735;28;20049;-72
2021/12/29 09:06:22;;;;;;;46.97;13.27;;;7.50;99.90;;;;;;5004318;28;20061;-72
2021/12/29 09:08:48;;;;;;;41.80;13.77;;;7.40;99.90;;;;;;5037201;28;20053;-72
2021/12/29 09:11:14;;;;;;;48.63;14.40;;;7.40;99.90;;;;;;5054165;28;20037;-72
2021/12/29 09:13:41;;;;;;;44.38;12.75;;;7.30;99.90;;;;;;5035295;28;20045;-72
2021/12/29 09:16:07;;;;;;;40.92;13.00;;;7.40;99.90;;;;;;5037718;28;20110;-72
2021/12/29 09:18:36;;;;;;;39.30;13.68;;;7.40;99.90;;;;;;5036167;28;20041;-72
2021/12/29 09:21:07;;;;;;;42.00;12.52;;;7.40;99.90;;;;;;5069382;28;20046;-73
2021/12/29 09:23:36;;;;;;;36.42;11.25;;;7.40;99.90;;;;;;5036886;28;20046;-73
2021/12/29 09:26:03;;;;;;;41.70;12.25;;;7.40;99.90;;;;;;5068360;28;20124;-72
2021/12/29 09:28:29;;;;;;;36.33;10.55;;;7.40;99.90;;;;;;5070990;28;20081;-73
2021/12/29 09:30:55;;;;;;;32.60;9.82;;;7.40;99.90;;;;;;5034141;28;20045;-73
2021/12/29 09:33:22;;;;;;;27.27;9.00;;;7.50;99.90;;;;;;5037751;28;20058;-72
2021/12/29 09:35:51;;;;;;;33.00;9.68;;;7.50;99.90;;;;;;5052834;28;20064;-72
2021/12/29 09:38:18;;;;;;;30.98;10.40;;;7.50;99.90;;;;;;5068867;28;20119;-73
2021/12/29 09:40:45;;;;;;;27.27;9.38;;;7.50;99.90;;;;;;5037578;28;20049;-72
2021/12/29 09:43:11;;;;;;;27.48;9.80;;;7.60;99.90;;;;;;5019137;28;20117;-73
2021/12/29 09:45:40;;;;;;;29.77;9.93;;;7.60;99.90;;;;;;5037272;28;20079;-72
2021/12/29 09:48:06;;;;;;;29.52;8.60;;;7.60;99.90;;;;;;5035010;28;20513;-72
2021/12/29 09:50:32;;;;;;;35.30;9.82;;;7.60;99.90;;;;;;5035651;28;20078;-72
2021/12/29 09:52:58;;;;;;;23.90;8.45;;;7.70;99.90;;;;;;5055306;28;20528;-72
2021/12/29 09:55:25;;;;;;;28.63;9.40;;;7.70;99.90;;;;;;5054266;28;20045;-72
2021/12/29 09:57:54;;;;;;;30.55;9.70;;;7.60;99.90;;;;;;5055798;28;20523;-72
2021/12/29 10:00:37;;;;;;;35.80;9.50;;;7.70;99.90;;;;;;5054673;28;20048;-72
2021/12/29 10:03:09;;;;;;;29.35;9.70;;;7.70;99.90;;;;;;5090493;28;20463;-72
2021/12/29 10:05:38;;;;;;;38.42;11.60;;;7.70;99.90;;;;;;5055770;28;20063;-72
2021/12/29 10:08:06;;;;;;;29.63;9.70;;;7.80;99.90;;;;;;5039654;28;20044;-72
2021/12/29 10:10:34;;;;;;;38.63;10.25;;;7.80;99.90;;;;;;5056599;28;20138;-72
2021/12/29 10:13:02;;;;;;;28.98;9.65;;;7.80;99.90;;;;;;5055008;28;20051;-72
2021/12/29 10:15:40;;;;;;;30.60;9.52;;;7.80;99.90;;;;;;5090597;28;20150;-72
2021/12/29 10:18:12;;;;;;;33.38;9.35;;;7.80;99.90;;;;;;5056425;28;20104;-72
2021/12/29 10:20:53;;;;;;;26.52;9.18;;;7.80;99.90;;;;;;5090029;28;20060;-73
2021/12/29 10:23:26;;;;;;;24.52;8.40;;;7.80;99.90;;;;;;5056686;28;20059;-72
2021/12/29 10:25:53;;;;;;;27.23;8.27;;;7.80;99.90;;;;;;5056442;28;20049;-72
2021/12/29 10:28:26;;;;;;;19.08;7.43;;;7.80;99.90;;;;;;5065663;28;20050;-72
2021/12/29 10:31:13;;;;;;;23.10;8.13;;;7.90;99.90;;;;;;5002124;28;20124;-73
2021/12/29 10:33:43;;;;;;;19.92;6.85;;;7.90;99.90;;;;;;5068538;28;20135;-73
2021/12/29 10:36:25;;;;;;;21.02;7.85;;;7.90;99.90;;;;;;5036032;28;20409;-72
2021/12/29 10:39:17;;;;;;;19.23;6.88;;;7.90;99.90;;;;;;5067891;28;20049;-72
2021/12/29 10:41:44;;;;;;;19.17;7.32;;;7.90;99.90;;;;;;5037581;28;20104;-72
2021/12/29 10:44:12;;;;;;;19.58;6.70;;;7.90;99.90;;;;;;5039403;28;20080;-72
2021/12/29 10:46:39;;;;;;;19.50;7.05;;;7.90;99.90;;;;;;5039488;28;20045;-72
2021/12/29 10:49:10;;;;;;;17.42;7.10;;;7.90;99.90;;;;;;5039915;28;20528;-72
2021/12/29 10:51:42;;;;;;;19.95;6.97;;;7.90;99.90;;;;;;5038654;28;20454;-73
2021/12/29 10:54:12;;;;;;;14.48;6.20;;;7.90;99.90;;;;;;5051674;28;20188;-71
2021/12/29 10:56:43;;;;;;;15.00;5.53;;;7.90;99.90;;;;;;5071609;28;20077;-72
2021/12/29 10:59:31;;;;;;;17.75;6.20;;;7.90;99.90;;;;;;5073552;28;20041;-72
2021/12/29 11:01:57;;;;;;;17.33;6.68;;;7.90;99.90;;;;;;5072247;28;20523;-72
2021/12/29 11:04:23;;;;;;;19.27;7.07;;;7.90;99.90;;;;;;5036722;28;20041;-73
2021/12/29 11:06:51;;;;;;;20.95;7.28;;;7.90;99.90;;;;;;5074666;28;20076;-72
2021/12/29 11:09:33;;;;;;;16.52;6.65;;;7.90;99.90;;;;;;5037884;28;20045;-73
2021/12/29 11:12:07;;;;;;;19.02;7.35;;;7.90;99.90;;;;;;5056379;28;20057;-73
2021/12/29 11:14:37;;;;;;;19.92;7.68;;;8.00;99.90;;;;;;5039215;28;20053;-72
2021/12/29 11:17:23;;;;;;;20.25;8.10;;;8.00;99.90;;;;;;5021255;28;20055;-72
2021/12/29 11:19:59;;;;;;;;;;;8.00;99.90;;;;;;5024058;28;20083;-72
2021/12/29 11:22:28;;;;;;;21.65;8.48;;;8.00;99.90;;;;;;5039094;28;19928;-72
2021/12/29 11:25:01;;;;;;;22.02;9.13;;;8.00;99.90;;;;;;5038607;28;20520;-72
2021/12/29 11:27:30;;;;;;;20.10;8.05;;;8.10;99.90;;;;;;5040877;28;20068;-71
2021/12/29 11:29:59;;;;;;;20.25;7.85;;;8.10;99.90;;;;;;5037406;28;20045;-71
2021/12/29 11:32:29;;;;;;;23.23;8.60;;;8.10;99.90;;;;;;5038986;28;20049;-71
2021/12/29 11:35:07;;;;;;;18.95;7.32;;;8.10;99.90;;;;;;5053455;28;20064;-71
2021/12/29 11:37:34;;;;;;;20.55;8.30;;;8.20;99.90;;;;;;5039448;28;20057;-71
2021/12/29 11:40:00;;;;;;;16.50;7.70;;;8.20;99.90;;;;;;5039842;28;20053;-71
2021/12/29 11:42:26;;;;;;;22.20;8.30;;;8.20;99.90;;;;;;5039020;28;20513;-71
2021/12/29 11:44:51;;;;;;;22.25;8.95;;;8.20;99.90;;;;;;5040209;28;20402;-72
2021/12/29 11:47:18;;;;;;;19.95;8.57;;;8.30;99.90;;;;;;5071678;28;20041;-72
2021/12/29 11:49:44;;;;;;;19.67;7.82;;;8.30;99.90;;;;;;5039816;28;20042;-72
2021/12/29 11:52:09;;;;;;;22.05;7.88;;;8.30;99.90;;;;;;5036434;28;20096;-71
2021/12/29 11:54:53;;;;;;;23.35;8.82;;;8.30;99.90;;;;;;5037965;28;20080;-72
2021/12/29 11:57:25;;;;;;;22.42;8.55;;;8.30;99.90;;;;;;5038806;28;20120;-72
2021/12/29 11:59:53;;;;;;;20.58;7.75;;;8.30;99.90;;;;;;5036842;28;20088;-72
2021/12/29 12:02:28;;;;;;;24.83;8.57;;;8.30;99.90;;;;;;5038548;28;20091;-72
2021/12/29 12:05:08;;;;;;;16.63;6.93;;;8.30;99.90;;;;;;5036337;28;20056;-71
2021/12/29 12:07:34;;;;;;;23.63;8.30;;;8.30;99.90;;;;;;5022022;28;20052;-71
2021/12/29 12:10:07;;;;;;;19.40;8.40;;;8.30;99.90;;;;;;5038222;28;20069;-70
2021/12/29 12:12:39;;;;;;;22.77;8.52;;;8.30;99.90;;;;;;5070345;28;20057;-70
2021/12/29 12:15:09;;;;;;;22.80;8.35;;;8.30;99.90;;;;;;5054478;28;20463;-70
2021/12/29 12:17:36;;;;;;;26.25;8.45;;;8.30;99.90;;;;;;5037907;28;20101;-71
2021/12/29 12:20:09;;;;;;;23.58;8.75;;;8.30;99.90;;;;;;5039125;28;20100;-70
2021/12/29 12:22:50;;;;;;;19.50;8.43;;;8.30;99.90;;;;;;5021150;28;20084;-70
2021/12/29 12:25:29;;;;;;;20.55;7.72;;;8.30;99.90;;;;;;5025277;28;20060;-70
2021/12/29 12:28:02;;;;;;;23.15;8.82;;;8.30;99.90;;;;;;5056896;28;20052;-69
2021/12/29 12:30:41;;;;;;;21.15;8.25;;;8.30;99.90;;;;;;5036669;28;20041;-70
2021/12/29 12:33:20;;;;;;;23.15;9.40;;;8.30;99.90;;;;;;5037668;28;20070;-71
2021/12/29 12:35:49;;;;;;;24.30;9.27;;;8.30;99.90;;;;;;5038511;28;20570;-70
2021/12/29 12:38:27;;;;;;;25.48;8.38;;;8.40;99.90;;;;;;5036226;28;20057;-70
2021/12/29 12:40:59;;;;;;;32.15;8.65;;;8.30;99.90;;;;;;5038460;28;20046;-70
2021/12/29 12:43:25;;;;;;;22.48;8.20;;;8.30;99.90;;;;;;5036114;28;20105;-70
2021/12/29 12:45:51;;;;;;;22.55;8.60;;;8.30;99.90;;;;;;5070965;28;20433;-70
2021/12/29 12:48:34;;;;;;;25.25;8.43;;;8.30;99.90;;;;;;5038327;28;20049;-70
2021/12/29 12:51:15;;;;;;;24.05;8.70;;;8.40;99.90;;;;;;5070215;28;20054;-70
2021/12/29 12:53:41;;;;;;;22.00;8.57;;;8.30;99.90;;;;;;5037585;28;20050;-70
2021/12/29 12:56:13;;;;;;;29.20;9.07;;;8.30;99.90;;;;;;5035452;28;20077;-70